Chadron, Nebraska
Current Conditions -  °F | °C
As of 11:53 PM on Thursday 18 Dec 2014 (Local Time) from KCDR Reporting Station
Clear Clear  
Wind Chill:   Ceiling: Unl
Heat Index: 15°   Visibility: 10mi
Dew Point: 11°   Wind: 6mph
Humidity: 84%   Direction: 240°WSW
Pressure: 30.06"   Gusts: NA
Location:  42.83°N, 103°W
Report Text: KCDR 190653Z AUTO 24005KT 10SM CLR M09/M12 A3006 RMK AO2 SLP232 T10941117 400281167
Loading
Personal Weather Stations






























Interactive Weather Map New forecast layout! Learn more

10-Day Weather Forecast

Advertisements
Track Severe Weather on mobile